createdAt,value
2022-12-11T00:02:25.415Z,-2.30
2022-12-11T00:04:53.906Z,-2.19
2022-12-11T00:07:23.553Z,-2.10
2022-12-11T00:09:51.981Z,-2.11
2022-12-11T00:12:20.011Z,-2.12
2022-12-11T00:14:50.132Z,-2.07
2022-12-11T00:17:18.516Z,-2.15
2022-12-11T00:19:47.514Z,-2.16
2022-12-11T00:22:16.418Z,-1.96
2022-12-11T00:24:49.257Z,-1.92
2022-12-11T00:27:18.504Z,-1.94
2022-12-11T00:29:46.841Z,-2.05
2022-12-11T00:32:15.285Z,-2.03
2022-12-11T00:34:46.704Z,-2.04
2022-12-11T00:37:14.977Z,-2.06
2022-12-11T00:39:44.083Z,-2.00
2022-12-11T00:42:14.044Z,-1.96
2022-12-11T00:44:44.853Z,-2.12
2022-12-11T00:47:17.237Z,-2.09
2022-12-11T00:49:49.995Z,-2.07
2022-12-11T00:52:18.940Z,-2.22
2022-12-11T00:54:47.287Z,-2.22
2022-12-11T00:57:18.180Z,-2.06
2022-12-11T00:59:47.975Z,-1.87
2022-12-11T01:02:16.136Z,-1.97
2022-12-11T01:04:44.565Z,-2.11
2022-12-11T01:07:13.268Z,-1.96
2022-12-11T01:09:58.680Z,-1.92
2022-12-11T01:12:29.238Z,-1.87
2022-12-11T01:14:59.978Z,-1.84
2022-12-11T01:17:28.977Z,-1.87
2022-12-11T01:20:00.593Z,-1.88
2022-12-11T01:22:30.205Z,-1.94
2022-12-11T01:24:59.390Z,-1.93
2022-12-11T01:27:29.554Z,-1.94
2022-12-11T01:30:00.807Z,-1.88
2022-12-11T01:32:29.987Z,-1.86
2022-12-11T01:34:58.407Z,-1.88
2022-12-11T01:37:26.596Z,-1.84
2022-12-11T01:39:54.935Z,-1.73
2022-12-11T01:42:25.436Z,-1.74
2022-12-11T01:45:42.175Z,-1.70
2022-12-11T01:48:23.018Z,-1.78
2022-12-11T01:50:53.951Z,-1.83
2022-12-11T01:53:27.027Z,-1.89
2022-12-11T01:55:57.841Z,-1.77
2022-12-11T01:58:30.270Z,-1.83
2022-12-11T02:01:00.318Z,-1.86
2022-12-11T02:03:30.085Z,-1.93
2022-12-11T02:06:01.390Z,-1.76
2022-12-11T02:08:30.767Z,-1.79
2022-12-11T02:11:12.318Z,-1.86
2022-12-11T02:13:49.866Z,-1.82
2022-12-11T02:16:23.524Z,-1.86
2022-12-11T02:19:02.628Z,-1.79
2022-12-11T02:21:37.133Z,-1.69
2022-12-11T02:24:30.921Z,-1.84
2022-12-11T02:27:24.465Z,-1.76
2022-12-11T02:30:01.981Z,-1.72
2022-12-11T02:32:37.150Z,-2.02
2022-12-11T02:35:13.673Z,-1.87
2022-12-11T02:37:45.833Z,-1.93
2022-12-11T02:40:18.402Z,-1.81
2022-12-11T02:42:50.095Z,-1.83
2022-12-11T02:45:22.470Z,-1.88
2022-12-11T02:47:55.372Z,-1.75
2022-12-11T02:50:25.048Z,-1.76
2022-12-11T02:52:57.207Z,-1.88
2022-12-11T02:55:28.684Z,-1.75
2022-12-11T02:58:04.743Z,-1.82
2022-12-11T03:00:36.484Z,-1.77
2022-12-11T03:03:04.864Z,-1.79
2022-12-11T03:05:33.797Z,-1.68
2022-12-11T03:08:03.667Z,-1.64
2022-12-11T03:10:31.882Z,-1.70
2022-12-11T03:13:01.730Z,-1.65
2022-12-11T03:15:39.677Z,-1.73
2022-12-11T03:18:15.377Z,-1.65
2022-12-11T03:20:47.772Z,-1.70
2022-12-11T03:23:22.781Z,-1.74
2022-12-11T03:25:57.450Z,-1.85
2022-12-11T03:28:33.391Z,-1.81
2022-12-11T03:31:08.792Z,-1.78
2022-12-11T03:33:41.418Z,-1.81
2022-12-11T03:36:12.687Z,-1.80
2022-12-11T03:38:49.649Z,-1.76
2022-12-11T03:41:22.223Z,-1.74
2022-12-11T03:43:54.693Z,-1.79
2022-12-11T03:46:29.909Z,-1.85
2022-12-11T03:49:00.896Z,-1.81
2022-12-11T03:51:31.667Z,-1.70
2022-12-11T03:54:01.257Z,-1.75
2022-12-11T03:56:33.164Z,-1.73
2022-12-11T03:59:01.558Z,-1.77
2022-12-11T04:01:32.228Z,-1.87
2022-12-11T04:04:00.489Z,-1.86
2022-12-11T04:06:30.564Z,-1.82
2022-12-11T04:08:59.010Z,-1.77
2022-12-11T04:11:35.803Z,-1.83
2022-12-11T04:14:22.215Z,-1.82
2022-12-11T04:16:52.994Z,-1.86
2022-12-11T04:19:41.754Z,-1.94
2022-12-11T04:22:28.011Z,-1.89
2022-12-11T04:24:57.461Z,-1.97
2022-12-11T04:27:43.454Z,-2.04
2022-12-11T04:30:18.382Z,-1.91
2022-12-11T04:32:48.716Z,-1.91
2022-12-11T04:35:18.093Z,-1.94
2022-12-11T04:37:46.620Z,-1.97
2022-12-11T04:40:18.777Z,-2.06
2022-12-11T04:42:48.164Z,-2.08
2022-12-11T04:45:17.230Z,-2.05
2022-12-11T04:47:45.682Z,-2.03
2022-12-11T04:50:19.472Z,-2.15
2022-12-11T04:52:47.630Z,-2.06
2022-12-11T04:55:17.858Z,-1.94
2022-12-11T04:57:46.669Z,-1.96
2022-12-11T05:00:16.599Z,-1.90
2022-12-11T05:02:46.626Z,-1.90
2022-12-11T05:05:16.466Z,-1.80
2022-12-11T05:07:46.361Z,-1.75
2022-12-11T05:10:15.063Z,-1.70
2022-12-11T05:12:44.516Z,-1.66
2022-12-11T05:15:12.875Z,-1.66
2022-12-11T05:17:41.175Z,-1.72
2022-12-11T05:20:11.167Z,-1.76
2022-12-11T05:22:42.026Z,-1.75
2022-12-11T05:25:11.467Z,-1.68
2022-12-11T05:27:40.098Z,-1.61
2022-12-11T05:30:11.551Z,-1.65
2022-12-11T05:32:41.236Z,-1.65
2022-12-11T05:35:10.357Z,-1.67
2022-12-11T05:37:39.406Z,-1.74
2022-12-11T05:40:13.615Z,-1.74
2022-12-11T05:42:42.259Z,-1.74
2022-12-11T05:45:12.350Z,-1.77
2022-12-11T05:47:41.996Z,-1.66
2022-12-11T05:50:11.167Z,-1.68
2022-12-11T05:52:39.867Z,-1.66
2022-12-11T05:55:12.412Z,-1.61
2022-12-11T05:57:43.457Z,-1.61
2022-12-11T06:00:14.638Z,-1.61
2022-12-11T06:02:44.671Z,-1.58
2022-12-11T06:05:13.582Z,-1.61
2022-12-11T06:07:42.199Z,-1.55
2022-12-11T06:10:12.699Z,-1.52
2022-12-11T06:12:41.078Z,-1.59
2022-12-11T06:15:10.847Z,-1.59
2022-12-11T06:17:39.613Z,-1.49
2022-12-11T06:20:08.850Z,-1.59
2022-12-11T06:22:37.209Z,-1.80
2022-12-11T06:25:06.367Z,-1.78
2022-12-11T06:27:35.928Z,-1.81
2022-12-11T06:30:04.076Z,-2.07
2022-12-11T06:32:32.205Z,-2.22
2022-12-11T06:35:02.308Z,-2.26
2022-12-11T06:37:30.670Z,-2.32
2022-12-11T06:39:58.833Z,-2.41
2022-12-11T06:42:27.001Z,-2.15
2022-12-11T06:44:59.902Z,-2.04
2022-12-11T06:47:28.356Z,-1.99
2022-12-11T06:49:57.448Z,-2.08
2022-12-11T06:52:28.665Z,-1.81
2022-12-11T06:54:57.586Z,-1.91
2022-12-11T06:57:26.200Z,-1.98
2022-12-11T06:59:54.661Z,-2.04
2022-12-11T07:02:24.512Z,-1.96
2022-12-11T07:04:55.181Z,-1.98
2022-12-11T07:07:24.157Z,-2.07
2022-12-11T07:09:53.189Z,-2.04
2022-12-11T07:12:21.575Z,-2.07
2022-12-11T07:14:53.531Z,-2.07
2022-12-11T07:17:25.699Z,-2.02
2022-12-11T07:19:55.790Z,-2.08
2022-12-11T07:22:28.819Z,-1.93
2022-12-11T07:24:58.632Z,-1.88
2022-12-11T07:27:26.853Z,-1.91
2022-12-11T07:29:55.749Z,-1.87
2022-12-11T07:32:26.092Z,-1.81
2022-12-11T07:34:54.683Z,-1.73
2022-12-11T07:37:23.245Z,-1.65
2022-12-11T07:39:51.458Z,-1.94
2022-12-11T07:42:19.923Z,-2.10
2022-12-11T07:44:48.119Z,-2.11
2022-12-11T07:47:16.435Z,-2.16
2022-12-11T07:49:49.167Z,-2.15
2022-12-11T07:52:18.982Z,-2.21
2022-12-11T07:54:47.180Z,-2.06
2022-12-11T07:57:15.792Z,-2.05
2022-12-11T07:59:45.266Z,-1.90
2022-12-11T08:02:13.858Z,-1.75
2022-12-11T08:04:42.342Z,-1.61
2022-12-11T08:07:15.702Z,-1.61
2022-12-11T08:09:44.392Z,-1.56
2022-12-11T08:12:13.715Z,-1.53
2022-12-11T08:14:42.256Z,-1.46
2022-12-11T08:17:11.067Z,-1.55
2022-12-11T08:19:39.124Z,-1.57
2022-12-11T08:22:07.476Z,-1.69
2022-12-11T08:24:37.463Z,-1.87
2022-12-11T08:27:05.764Z,-1.94
2022-12-11T08:29:34.032Z,-1.94
2022-12-11T08:32:05.292Z,-1.96
2022-12-11T08:34:37.390Z,-2.04
2022-12-11T08:37:06.166Z,-1.97
2022-12-11T08:39:35.412Z,-2.00
2022-12-11T08:42:05.435Z,-1.79
2022-12-11T08:44:37.090Z,-1.51
2022-12-11T08:47:05.723Z,-1.44
2022-12-11T08:49:34.736Z,-1.51
2022-12-11T08:52:04.437Z,-1.27
2022-12-11T08:54:32.795Z,-1.18
2022-12-11T08:57:02.709Z,-1.05
2022-12-11T08:59:32.657Z,-0.94
2022-12-11T09:02:02.485Z,-0.83
2022-12-11T09:04:30.913Z,-0.91
2022-12-11T09:06:59.101Z,-1.24
2022-12-11T09:09:29.687Z,-1.18
2022-12-11T09:12:01.761Z,-0.84
2022-12-11T09:14:32.099Z,-0.91
2022-12-11T09:17:03.391Z,-0.77
2022-12-11T09:19:32.890Z,-0.85
2022-12-11T09:22:01.996Z,-0.95
2022-12-11T09:24:31.008Z,-1.13
2022-12-11T09:26:59.803Z,-1.23
2022-12-11T09:29:28.349Z,-1.26
2022-12-11T09:31:58.520Z,-1.24
2022-12-11T09:34:29.494Z,-1.23
2022-12-11T09:36:58.431Z,-0.90
2022-12-11T09:39:27.224Z,-1.06
2022-12-11T09:42:03.455Z,-1.04
2022-12-11T09:44:45.723Z,-0.83
2022-12-11T09:47:23.845Z,-1.04
2022-12-11T09:49:58.762Z,-0.92
2022-12-11T09:52:38.979Z,-0.99
2022-12-11T09:55:20.960Z,-0.96
2022-12-11T09:58:01.727Z,-0.92
2022-12-11T10:00:38.431Z,-0.87
2022-12-11T10:03:34.218Z,-0.96
2022-12-11T10:06:09.082Z,-0.64
2022-12-11T10:08:43.929Z,-0.47
2022-12-11T10:11:31.548Z,-0.42
2022-12-11T10:14:08.425Z,-0.27
2022-12-11T10:16:41.204Z,-0.15
2022-12-11T10:19:18.799Z,-0.11
2022-12-11T10:21:48.465Z,-0.09
2022-12-11T10:24:48.933Z,-0.40
2022-12-11T10:27:19.426Z,-0.72
2022-12-11T10:29:48.543Z,-0.55
2022-12-11T10:32:25.959Z,-0.28
2022-12-11T10:35:04.112Z,-0.22
2022-12-11T10:37:32.692Z,-0.14
2022-12-11T10:40:02.324Z,-0.39
2022-12-11T10:42:38.931Z,-0.46
2022-12-11T10:45:17.941Z,-0.55
2022-12-11T10:47:46.516Z,-0.57
2022-12-11T10:50:27.253Z,-0.50
2022-12-11T10:52:55.418Z,-0.21
2022-12-11T10:55:29.071Z,-0.15
2022-12-11T10:58:01.133Z,-0.03
2022-12-11T11:00:37.701Z,0.16
2022-12-11T11:03:07.813Z,-0.30
2022-12-11T11:05:39.159Z,-0.51
2022-12-11T11:08:16.559Z,-0.18
2022-12-11T11:10:56.849Z,-0.24
2022-12-11T11:13:27.059Z,-0.12
2022-12-11T11:16:09.980Z,-0.45
2022-12-11T11:18:40.272Z,-0.11
2022-12-11T11:21:17.404Z,0.12
2022-12-11T11:23:51.910Z,0.18
2022-12-11T11:26:23.231Z,0.22
2022-12-11T11:28:54.996Z,-0.10
2022-12-11T11:31:39.435Z,-0.10
2022-12-11T11:34:11.701Z,-0.20
2022-12-11T11:36:42.914Z,-0.05
2022-12-11T11:39:23.002Z,-0.21
2022-12-11T11:41:57.651Z,-0.29
2022-12-11T11:44:30.729Z,0.00
2022-12-11T11:47:06.175Z,-0.26
2022-12-11T11:49:48.422Z,-0.13
2022-12-11T11:52:25.396Z,0.04
2022-12-11T11:55:06.954Z,0.08
2022-12-11T11:57:43.957Z,0.06
2022-12-11T12:00:20.924Z,0.10
2022-12-11T12:02:51.486Z,0.16
2022-12-11T12:05:27.566Z,-0.03
2022-12-11T12:08:16.650Z,-0.23
2022-12-11T12:10:51.522Z,0.02
2022-12-11T12:19:38.354Z,0.14
2022-12-11T12:22:18.318Z,0.10
2022-12-11T12:24:55.448Z,0.18
2022-12-11T12:30:23.251Z,0.02
2022-12-11T12:33:05.838Z,0.21
2022-12-11T12:35:43.734Z,0.24
2022-12-11T12:38:18.811Z,0.17
2022-12-11T12:41:05.770Z,0.32
2022-12-11T12:43:58.796Z,0.26
2022-12-11T12:46:44.157Z,0.44
2022-12-11T12:49:18.210Z,0.48
2022-12-11T12:51:48.048Z,0.57
2022-12-11T12:54:21.894Z,0.49
2022-12-11T12:56:51.585Z,0.46
2022-12-11T12:59:22.335Z,0.40
2022-12-11T13:01:55.314Z,0.45
2022-12-11T13:07:30.240Z,0.54
2022-12-11T13:10:02.326Z,0.46
2022-12-11T13:12:50.183Z,0.57
2022-12-11T13:15:36.471Z,0.54
2022-12-11T13:18:27.539Z,0.46
2022-12-11T13:20:57.899Z,0.46
2022-12-11T13:23:33.129Z,0.49
2022-12-11T13:26:03.515Z,0.51
2022-12-11T13:28:36.195Z,0.39
2022-12-11T13:31:08.967Z,0.41
2022-12-11T13:33:44.828Z,0.28
2022-12-11T13:36:37.825Z,0.25
2022-12-11T13:39:17.253Z,0.26
2022-12-11T13:41:48.825Z,0.31
2022-12-11T13:44:31.876Z,0.20
2022-12-11T13:47:03.859Z,0.27
2022-12-11T13:49:37.532Z,0.37
2022-12-11T13:52:12.006Z,0.22
2022-12-11T13:54:50.612Z,0.28
2022-12-11T13:57:25.506Z,0.33
2022-12-11T13:59:55.507Z,0.27
2022-12-11T14:02:27.495Z,0.45
2022-12-11T14:04:58.690Z,0.42
2022-12-11T14:07:33.553Z,0.42
2022-12-11T14:10:05.259Z,0.42
2022-12-11T14:12:34.782Z,0.54
2022-12-11T14:15:06.186Z,0.51
2022-12-11T14:17:36.676Z,0.36
2022-12-11T14:20:08.986Z,0.34
2022-12-11T14:22:38.994Z,0.15
2022-12-11T14:25:21.973Z,-0.08
2022-12-11T14:27:53.204Z,0.10
2022-12-11T14:30:25.433Z,0.22
2022-12-11T14:32:56.874Z,0.13
2022-12-11T14:35:35.563Z,0.15
2022-12-11T14:38:15.002Z,-0.10
2022-12-11T14:40:46.605Z,0.11
2022-12-11T14:43:22.238Z,0.22
2022-12-11T14:45:56.196Z,0.08
2022-12-11T14:48:29.870Z,0.09
2022-12-11T14:51:03.179Z,-0.06
2022-12-11T14:53:40.092Z,-0.01
2022-12-11T14:56:18.316Z,-0.22
2022-12-11T14:58:51.551Z,-0.27
2022-12-11T15:01:25.319Z,-0.40
2022-12-11T15:04:04.325Z,-0.42
2022-12-11T15:06:36.743Z,-0.46
2022-12-11T15:09:19.835Z,-0.47
2022-12-11T15:11:50.534Z,-0.36
2022-12-11T15:14:21.662Z,-0.36
2022-12-11T15:16:52.096Z,-0.48
2022-12-11T15:19:25.158Z,-0.51
2022-12-11T15:21:53.924Z,-0.55
2022-12-11T15:24:44.544Z,-0.43
2022-12-11T15:27:28.638Z,-0.63
2022-12-11T15:29:57.158Z,-0.66
2022-12-11T15:32:26.616Z,-0.69
2022-12-11T15:34:58.789Z,-0.57
2022-12-11T15:37:33.303Z,-0.66
2022-12-11T15:40:05.356Z,-0.70
2022-12-11T15:42:37.265Z,-0.80
2022-12-11T15:45:11.216Z,-0.76
2022-12-11T15:47:39.980Z,-0.78
2022-12-11T15:50:17.213Z,-0.85
2022-12-11T15:52:47.653Z,-0.91
2022-12-11T15:55:20.782Z,-0.97
2022-12-11T15:57:53.175Z,-0.95
2022-12-11T16:00:26.548Z,-0.89
2022-12-11T16:02:57.547Z,-0.81
2022-12-11T16:05:26.905Z,-0.74
2022-12-11T16:08:00.521Z,-0.68
2022-12-11T16:10:30.544Z,-0.70
2022-12-11T16:12:59.903Z,-0.73
2022-12-11T16:15:29.168Z,-0.71
2022-12-11T16:18:05.012Z,-0.85
2022-12-11T16:20:34.159Z,-0.84
2022-12-11T16:23:02.953Z,-0.76
2022-12-11T16:25:34.276Z,-0.68
2022-12-11T16:28:03.369Z,-0.51
2022-12-11T16:30:32.252Z,-0.43
2022-12-11T16:33:11.730Z,-0.48
2022-12-11T16:35:43.440Z,-0.44
2022-12-11T16:38:12.750Z,-0.44
2022-12-11T16:40:42.975Z,-0.36
2022-12-11T16:43:11.701Z,-0.38
2022-12-11T16:45:41.096Z,-0.35
2022-12-11T16:48:09.592Z,-0.34
2022-12-11T16:50:40.995Z,-0.39
2022-12-11T16:53:09.273Z,-0.39
2022-12-11T16:55:38.626Z,-0.41
2022-12-11T16:58:09.677Z,-0.26
2022-12-11T17:00:38.426Z,-0.19
2022-12-11T17:03:07.582Z,-0.16
2022-12-11T17:05:39.567Z,-0.16
2022-12-11T17:08:08.583Z,-0.15
2022-12-11T17:10:43.405Z,-0.16
2022-12-11T17:13:13.383Z,-0.08
2022-12-11T17:15:42.826Z,-0.06
2022-12-11T17:18:13.744Z,-0.01
2022-12-11T17:20:43.258Z,-0.02
2022-12-11T17:23:11.985Z,-0.22
2022-12-11T17:25:42.792Z,-0.10
2022-12-11T17:28:14.278Z,-0.20
2022-12-11T17:30:43.633Z,-0.33
2022-12-11T17:33:14.072Z,-0.22
2022-12-11T17:35:43.057Z,-0.30
2022-12-11T17:38:16.667Z,-0.33
2022-12-11T17:40:47.953Z,-0.26
2022-12-11T17:43:17.937Z,-0.27
2022-12-11T17:45:49.569Z,-0.22
2022-12-11T17:48:19.791Z,-0.24
2022-12-11T17:50:49.243Z,-0.25
2022-12-11T17:53:21.404Z,-0.19
2022-12-11T17:55:52.007Z,-0.21
2022-12-11T17:58:30.760Z,-0.24
2022-12-11T18:01:01.268Z,-0.34
2022-12-11T18:03:30.562Z,-0.33
2022-12-11T18:06:04.570Z,-0.35
2022-12-11T18:08:33.487Z,-0.27
2022-12-11T18:11:07.046Z,-0.34
2022-12-11T18:13:37.906Z,-0.30
2022-12-11T18:16:09.127Z,-0.38
2022-12-11T18:18:39.916Z,-0.35
2022-12-11T18:21:08.568Z,-0.50
2022-12-11T18:23:37.545Z,-0.61
2022-12-11T18:26:06.102Z,-0.63
2022-12-11T18:28:34.982Z,-0.66
2022-12-11T18:31:05.826Z,-0.62
2022-12-11T18:33:37.168Z,-0.66
2022-12-11T18:36:06.198Z,-0.70
2022-12-11T18:38:35.626Z,-0.73
2022-12-11T18:41:05.408Z,-0.77
2022-12-11T18:43:33.939Z,-0.88
2022-12-11T18:46:09.342Z,-1.03
2022-12-11T18:48:38.075Z,-0.91
2022-12-11T18:51:10.035Z,-0.85
2022-12-11T18:53:39.788Z,-0.79
2022-12-11T18:56:11.299Z,-0.84
2022-12-11T18:58:42.432Z,-0.77
2022-12-11T19:01:18.012Z,-0.71
2022-12-11T19:03:49.035Z,-0.80
2022-12-11T19:06:20.802Z,-0.88
2022-12-11T19:08:51.823Z,-1.01
2022-12-11T19:11:22.516Z,-0.94
2022-12-11T19:13:51.615Z,-0.87
2022-12-11T19:16:27.456Z,-1.03
2022-12-11T19:18:56.298Z,-0.98
2022-12-11T19:21:24.830Z,-1.04
2022-12-11T19:23:53.035Z,-0.94
2022-12-11T19:26:24.724Z,-0.82
2022-12-11T19:29:00.232Z,-0.76
2022-12-11T19:31:35.926Z,-0.56
2022-12-11T19:34:04.728Z,-0.59
2022-12-11T19:36:35.238Z,-0.80
2022-12-11T19:39:07.098Z,-0.61
2022-12-11T19:41:38.323Z,-0.52
2022-12-11T19:44:07.265Z,-0.52
2022-12-11T19:46:37.407Z,-0.37
2022-12-11T19:49:08.727Z,-0.50
2022-12-11T19:51:39.871Z,-0.51
2022-12-11T19:54:10.327Z,-0.59
2022-12-11T19:56:38.696Z,-0.51
2022-12-11T19:59:10.374Z,-0.66
2022-12-11T20:01:40.304Z,-0.48
2022-12-11T20:04:11.943Z,-0.45
2022-12-11T20:06:44.556Z,-0.41
2022-12-11T20:09:14.615Z,-0.48
2022-12-11T20:11:48.026Z,-0.43
2022-12-11T20:14:21.885Z,-0.47
2022-12-11T20:17:11.348Z,-0.41
2022-12-11T20:19:43.406Z,-0.41
2022-12-11T20:22:12.489Z,-0.61
2022-12-11T20:24:40.843Z,-0.64
2022-12-11T20:27:09.583Z,-0.57
2022-12-11T20:29:41.553Z,-0.70
2022-12-11T20:32:12.994Z,-0.71
2022-12-11T20:34:42.350Z,-0.57
2022-12-11T20:37:10.568Z,-0.58
2022-12-11T20:39:38.740Z,-0.59
2022-12-11T20:42:11.272Z,-0.59
2022-12-11T20:44:42.775Z,-0.62
2022-12-11T20:47:22.567Z,-0.60
2022-12-11T20:49:52.847Z,-0.68
2022-12-11T20:52:22.595Z,-0.63
2022-12-11T20:54:52.531Z,-0.66
2022-12-11T20:57:21.805Z,-0.54
2022-12-11T20:59:50.129Z,-0.58
2022-12-11T21:02:20.447Z,-0.63
2022-12-11T21:04:48.709Z,-0.73
2022-12-11T21:07:20.349Z,-0.73
2022-12-11T21:09:48.739Z,-0.75
2022-12-11T21:12:17.276Z,-0.60
2022-12-11T21:14:45.602Z,-0.44
2022-12-11T21:17:15.971Z,-0.52
2022-12-11T21:19:45.574Z,-0.53
2022-12-11T21:22:15.134Z,-0.63
2022-12-11T21:24:43.634Z,-0.53
2022-12-11T21:27:13.509Z,-0.52
2022-12-11T21:29:42.265Z,-0.59
2022-12-11T21:32:11.727Z,-0.63
2022-12-11T21:34:40.999Z,-0.51
2022-12-11T21:37:11.920Z,-0.51
2022-12-11T21:39:40.181Z,-0.51
2022-12-11T21:42:08.747Z,-0.65
2022-12-11T21:47:27.874Z,-0.63
2022-12-11T21:49:56.681Z,-0.59
2022-12-11T21:52:27.238Z,-0.68
2022-12-11T21:54:56.786Z,-0.72
2022-12-11T21:57:27.026Z,-0.80
2022-12-11T21:59:56.175Z,-0.71
2022-12-11T22:02:25.259Z,-0.77
2022-12-11T22:04:53.779Z,-0.62
2022-12-11T22:07:22.590Z,-0.61
2022-12-11T22:09:52.992Z,-0.60
2022-12-11T22:12:29.200Z,-0.69
2022-12-11T22:14:57.685Z,-0.67
2022-12-11T22:17:25.870Z,-0.59
2022-12-11T22:19:54.590Z,-0.70
2022-12-11T22:22:24.503Z,-0.75
2022-12-11T22:24:54.444Z,-0.76
2022-12-11T22:27:24.441Z,-0.62
2022-12-11T22:29:53.222Z,-0.75
2022-12-11T22:32:21.468Z,-0.70
2022-12-11T22:34:50.059Z,-0.67
2022-12-11T22:37:20.083Z,-0.71
2022-12-11T22:39:49.745Z,-0.94
2022-12-11T22:42:20.053Z,-0.89
2022-12-11T22:44:48.689Z,-0.73
2022-12-11T22:47:18.436Z,-0.69
2022-12-11T22:49:47.647Z,-0.63
2022-12-11T22:52:16.620Z,-0.72
2022-12-11T22:54:46.624Z,-0.60
2022-12-11T22:57:15.150Z,-0.64
2022-12-11T22:59:44.721Z,-0.67
2022-12-11T23:02:13.220Z,-0.87
2022-12-11T23:04:41.674Z,-0.79
2022-12-11T23:07:10.383Z,-0.69
2022-12-11T23:09:38.533Z,-0.98
2022-12-11T23:12:07.384Z,-1.22
2022-12-11T23:14:35.854Z,-1.18
2022-12-11T23:17:05.966Z,-0.98
2022-12-11T23:19:36.496Z,-1.00
2022-12-11T23:22:05.692Z,-0.91
2022-12-11T23:24:34.642Z,-1.14
2022-12-11T23:27:05.879Z,-1.24
2022-12-11T23:29:34.207Z,-1.11
2022-12-11T23:32:02.852Z,-0.91
2022-12-11T23:34:34.188Z,-0.90
2022-12-11T23:37:02.777Z,-0.87
2022-12-11T23:39:32.551Z,-0.91
2022-12-11T23:42:01.664Z,-0.80
2022-12-11T23:44:29.795Z,-0.75
2022-12-11T23:46:59.602Z,-0.72
2022-12-11T23:49:28.312Z,-0.66
2022-12-11T23:51:58.433Z,-0.72
2022-12-11T23:54:28.328Z,-0.64
2022-12-11T23:56:56.481Z,-0.65
2022-12-11T23:59:25.005Z,-0.57
